sensor_id;sensor_type;location;lat;lon;timestamp;temperature;humidity
13186;DHT22;6658;53.080;7.428;2023-05-10T00:05:12;14.30;99.90
13186;DHT22;6658;53.080;7.428;2023-05-10T00:07:52;14.30;99.90
13186;DHT22;6658;53.080;7.428;2023-05-10T00:14:47;14.30;99.90
13186;DHT22;6658;53.080;7.428;2023-05-10T00:17:27;14.20;99.90
13186;DHT22;6658;53.080;7.428;2023-05-10T00:20:17;14.20;99.90
13186;DHT22;6658;53.080;7.428;2023-05-10T00:22:51;14.20;99.90
13186;DHT22;6658;53.080;7.428;2023-05-10T00:29:00;14.20;99.90
13186;DHT22;6658;53.080;7.428;2023-05-10T00:31:35;14.10;99.90
13186;DHT22;6658;53.080;7.428;2023-05-10T00:34:21;14.10;99.90
13186;DHT22;6658;53.080;7.428;2023-05-10T00:37:00;14.10;99.90
13186;DHT22;6658;53.080;7.428;2023-05-10T00:39:31;14.10;99.90
13186;DHT22;6658;53.080;7.428;2023-05-10T00:41:57;14.10;99.90
13186;DHT22;6658;53.080;7.428;2023-05-10T00:44:23;14.10;99.90
13186;DHT22;6658;53.080;7.428;2023-05-10T00:46:49;14.00;99.90
13186;DHT22;6658;53.080;7.428;2023-05-10T00:49:27;14.10;99.90
13186;DHT22;6658;53.080;7.428;2023-05-10T00:52:02;14.10;99.90
13186;DHT22;6658;53.080;7.428;2023-05-10T00:54:37;14.10;99.90
13186;DHT22;6658;53.080;7.428;2023-05-10T01:42:48;14.00;99.90
13186;DHT22;6658;53.080;7.428;2023-05-10T01:45:33;14.10;99.90
13186;DHT22;6658;53.080;7.428;2023-05-10T01:48:10;14.10;99.90
13186;DHT22;6658;53.080;7.428;2023-05-10T01:50:49;14.00;99.90
13186;DHT22;6658;53.080;7.428;2023-05-10T01:53:18;14.10;99.90
13186;DHT22;6658;53.080;7.428;2023-05-10T01:55:53;14.00;99.90
13186;DHT22;6658;53.080;7.428;2023-05-10T01:58:25;14.00;99.90
13186;DHT22;6658;53.080;7.428;2023-05-10T02:00:53;13.90;99.90
13186;DHT22;6658;53.080;7.428;2023-05-10T02:03:22;13.80;99.90
13186;DHT22;6658;53.080;7.428;2023-05-10T02:05:49;13.60;99.90
13186;DHT22;6658;53.080;7.428;2023-05-10T02:08:17;13.60;99.90
13186;DHT22;6658;53.080;7.428;2023-05-10T02:10:45;13.50;99.90
13186;DHT22;6658;53.080;7.428;2023-05-10T02:13:12;13.40;99.90
13186;DHT22;6658;53.080;7.428;2023-05-10T02:15:40;13.40;99.90
13186;DHT22;6658;53.080;7.428;2023-05-10T02:18:07;13.40;99.90
13186;DHT22;6658;53.080;7.428;2023-05-10T02:20:37;13.30;99.90
13186;DHT22;6658;53.080;7.428;2023-05-10T02:23:03;13.30;99.90
13186;DHT22;6658;53.080;7.428;2023-05-10T02:25:31;13.30;99.90
13186;DHT22;6658;53.080;7.428;2023-05-10T02:28:01;13.30;99.90
13186;DHT22;6658;53.080;7.428;2023-05-10T02:33:23;13.20;99.90
13186;DHT22;6658;53.080;7.428;2023-05-10T02:35:50;13.20;99.90
13186;DHT22;6658;53.080;7.428;2023-05-10T02:38:23;13.20;99.90
13186;DHT22;6658;53.080;7.428;2023-05-10T02:40:53;13.20;99.90
13186;DHT22;6658;53.080;7.428;2023-05-10T02:43:28;13.20;99.90
13186;DHT22;6658;53.080;7.428;2023-05-10T02:46:09;13.20;99.90
13186;DHT22;6658;53.080;7.428;2023-05-10T02:48:54;13.20;99.90
13186;DHT22;6658;53.080;7.428;2023-05-10T02:51:24;13.20;99.90
13186;DHT22;6658;53.080;7.428;2023-05-10T02:53:53;13.20;99.90
13186;DHT22;6658;53.080;7.428;2023-05-10T02:56:42;13.20;99.90
13186;DHT22;6658;53.080;7.428;2023-05-10T02:59:08;13.20;99.90
13186;DHT22;6658;53.080;7.428;2023-05-10T03:01:49;13.20;99.90
13186;DHT22;6658;53.080;7.428;2023-05-10T03:04:15;13.20;99.90
13186;DHT22;6658;53.080;7.428;2023-05-10T03:10:41;13.20;99.90
13186;DHT22;6658;53.080;7.428;2023-05-10T03:13:56;13.10;99.90
13186;DHT22;6658;53.080;7.428;2023-05-10T03:20:31;13.10;99.90
13186;DHT22;6658;53.080;7.428;2023-05-10T03:34:56;13.10;99.90
13186;DHT22;6658;53.080;7.428;2023-05-10T03:40:53;13.10;99.90
13186;DHT22;6658;53.080;7.428;2023-05-10T03:43:34;13.10;99.90
13186;DHT22;6658;53.080;7.428;2023-05-10T03:46:12;13.10;99.90
13186;DHT22;6658;53.080;7.428;2023-05-10T03:48:40;13.10;99.90
13186;DHT22;6658;53.080;7.428;2023-05-10T03:51:09;13.10;99.90
13186;DHT22;6658;53.080;7.428;2023-05-10T03:53:57;13.10;99.90
13186;DHT22;6658;53.080;7.428;2023-05-10T03:56:22;13.10;99.90
13186;DHT22;6658;53.080;7.428;2023-05-10T03:58:48;13.10;99.90
13186;DHT22;6658;53.080;7.428;2023-05-10T04:01:14;13.10;99.90
13186;DHT22;6658;53.080;7.428;2023-05-10T04:03:40;13.00;99.90
13186;DHT22;6658;53.080;7.428;2023-05-10T04:06:06;13.00;99.90
13186;DHT22;6658;53.080;7.428;2023-05-10T04:08:36;13.00;99.90
13186;DHT22;6658;53.080;7.428;2023-05-10T04:11:10;13.00;99.90
13186;DHT22;6658;53.080;7.428;2023-05-10T04:13:36;13.00;99.90
13186;DHT22;6658;53.080;7.428;2023-05-10T04:16:02;13.00;99.90
13186;DHT22;6658;53.080;7.428;2023-05-10T04:18:29;13.00;99.90
13186;DHT22;6658;53.080;7.428;2023-05-10T04:20:55;13.00;99.90
13186;DHT22;6658;53.080;7.428;2023-05-10T04:23:21;13.00;99.90
13186;DHT22;6658;53.080;7.428;2023-05-10T04:25:47;13.00;99.90
13186;DHT22;6658;53.080;7.428;2023-05-10T04:28:13;13.00;99.90
13186;DHT22;6658;53.080;7.428;2023-05-10T04:30:38;13.00;99.90
13186;DHT22;6658;53.080;7.428;2023-05-10T04:33:04;13.00;99.90
13186;DHT22;6658;53.080;7.428;2023-05-10T04:35:30;13.00;99.90
13186;DHT22;6658;53.080;7.428;2023-05-10T04:37:56;13.00;99.90
13186;DHT22;6658;53.080;7.428;2023-05-10T04:40:22;13.10;99.90
13186;DHT22;6658;53.080;7.428;2023-05-10T04:42:47;13.10;99.90
13186;DHT22;6658;53.080;7.428;2023-05-10T04:45:13;13.10;99.90
13186;DHT22;6658;53.080;7.428;2023-05-10T04:47:42;13.10;99.90
13186;DHT22;6658;53.080;7.428;2023-05-10T04:50:08;13.10;99.90
13186;DHT22;6658;53.080;7.428;2023-05-10T04:52:34;13.10;99.90
13186;DHT22;6658;53.080;7.428;2023-05-10T04:55:00;13.20;99.90
13186;DHT22;6658;53.080;7.428;2023-05-10T04:57:26;13.20;99.90
13186;DHT22;6658;53.080;7.428;2023-05-10T04:59:51;13.20;99.90
13186;DHT22;6658;53.080;7.428;2023-05-10T05:02:17;13.20;99.90
13186;DHT22;6658;53.080;7.428;2023-05-10T05:04:43;13.30;99.90
13186;DHT22;6658;53.080;7.428;2023-05-10T05:07:09;13.20;99.90
13186;DHT22;6658;53.080;7.428;2023-05-10T05:09:35;13.30;99.90
13186;DHT22;6658;53.080;7.428;2023-05-10T05:12:01;13.40;99.90
13186;DHT22;6658;53.080;7.428;2023-05-10T05:14:26;13.40;99.90
13186;DHT22;6658;53.080;7.428;2023-05-10T05:16:52;13.40;99.90
13186;DHT22;6658;53.080;7.428;2023-05-10T05:19:18;13.50;99.90
13186;DHT22;6658;53.080;7.428;2023-05-10T05:21:44;13.50;99.90
13186;DHT22;6658;53.080;7.428;2023-05-10T05:24:10;13.50;99.90
13186;DHT22;6658;53.080;7.428;2023-05-10T05:26:38;13.60;99.90
13186;DHT22;6658;53.080;7.428;2023-05-10T05:29:04;13.60;99.90
13186;DHT22;6658;53.080;7.428;2023-05-10T05:31:30;13.70;99.90
13186;DHT22;6658;53.080;7.428;2023-05-10T05:33:56;13.70;99.90
13186;DHT22;6658;53.080;7.428;2023-05-10T05:36:22;13.70;99.90
13186;DHT22;6658;53.080;7.428;2023-05-10T05:38:48;13.70;99.90
13186;DHT22;6658;53.080;7.428;2023-05-10T05:41:16;13.80;99.90
13186;DHT22;6658;53.080;7.428;2023-05-10T05:43:42;13.80;99.90
13186;DHT22;6658;53.080;7.428;2023-05-10T05:46:08;13.80;99.90
13186;DHT22;6658;53.080;7.428;2023-05-10T05:48:34;13.90;99.90
13186;DHT22;6658;53.080;7.428;2023-05-10T05:51:02;13.90;99.90
13186;DHT22;6658;53.080;7.428;2023-05-10T05:53:28;13.90;99.90
13186;DHT22;6658;53.080;7.428;2023-05-10T05:55:55;14.00;99.90
13186;DHT22;6658;53.080;7.428;2023-05-10T05:58:22;13.90;99.90
13186;DHT22;6658;53.080;7.428;2023-05-10T06:00:48;13.90;99.90
13186;DHT22;6658;53.080;7.428;2023-05-10T06:03:13;13.80;99.90
13186;DHT22;6658;53.080;7.428;2023-05-10T06:05:40;13.80;99.90
13186;DHT22;6658;53.080;7.428;2023-05-10T06:08:05;13.80;99.90
13186;DHT22;6658;53.080;7.428;2023-05-10T06:10:31;13.70;99.90
13186;DHT22;6658;53.080;7.428;2023-05-10T06:12:57;13.70;99.90
13186;DHT22;6658;53.080;7.428;2023-05-10T06:15:26;13.70;99.90
13186;DHT22;6658;53.080;7.428;2023-05-10T06:17:52;13.70;99.90
13186;DHT22;6658;53.080;7.428;2023-05-10T06:20:18;13.60;99.90
13186;DHT22;6658;53.080;7.428;2023-05-10T06:22:44;13.70;99.90
13186;DHT22;6658;53.080;7.428;2023-05-10T06:25:10;13.70;99.90
13186;DHT22;6658;53.080;7.428;2023-05-10T06:27:37;13.70;99.90
13186;DHT22;6658;53.080;7.428;2023-05-10T06:30:03;13.70;99.90
13186;DHT22;6658;53.080;7.428;2023-05-10T06:32:29;13.70;99.90
13186;DHT22;6658;53.080;7.428;2023-05-10T06:34:55;13.70;99.90
13186;DHT22;6658;53.080;7.428;2023-05-10T06:37:20;13.70;99.90
13186;DHT22;6658;53.080;7.428;2023-05-10T06:39:46;13.70;99.90
13186;DHT22;6658;53.080;7.428;2023-05-10T06:42:12;13.70;99.90
13186;DHT22;6658;53.080;7.428;2023-05-10T06:44:38;13.70;99.90
13186;DHT22;6658;53.080;7.428;2023-05-10T06:47:03;13.70;99.90
13186;DHT22;6658;53.080;7.428;2023-05-10T06:49:29;13.70;99.90
13186;DHT22;6658;53.080;7.428;2023-05-10T06:51:58;13.70;99.90
13186;DHT22;6658;53.080;7.428;2023-05-10T06:54:24;13.70;99.90
13186;DHT22;6658;53.080;7.428;2023-05-10T06:56:52;13.70;99.90
13186;DHT22;6658;53.080;7.428;2023-05-10T06:59:18;13.70;99.90
13186;DHT22;6658;53.080;7.428;2023-05-10T07:01:44;13.70;99.90
13186;DHT22;6658;53.080;7.428;2023-05-10T07:04:10;13.70;99.90
13186;DHT22;6658;53.080;7.428;2023-05-10T07:06:42;13.70;99.90
13186;DHT22;6658;53.080;7.428;2023-05-10T07:09:08;13.80;99.90
13186;DHT22;6658;53.080;7.428;2023-05-10T07:11:34;13.80;99.90
13186;DHT22;6658;53.080;7.428;2023-05-10T07:14:02;13.70;99.90
13186;DHT22;6658;53.080;7.428;2023-05-10T07:16:28;13.80;99.90
13186;DHT22;6658;53.080;7.428;2023-05-10T07:18:54;13.80;99.90
13186;DHT22;6658;53.080;7.428;2023-05-10T07:21:19;13.80;99.90
13186;DHT22;6658;53.080;7.428;2023-05-10T07:23:45;13.70;99.90
13186;DHT22;6658;53.080;7.428;2023-05-10T07:26:11;13.70;99.90
13186;DHT22;6658;53.080;7.428;2023-05-10T07:28:39;13.70;99.90
13186;DHT22;6658;53.080;7.428;2023-05-10T07:31:05;13.80;99.90
13186;DHT22;6658;53.080;7.428;2023-05-10T07:33:31;13.80;99.90
13186;DHT22;6658;53.080;7.428;2023-05-10T07:35:57;13.80;99.90
13186;DHT22;6658;53.080;7.428;2023-05-10T07:38:23;13.90;99.90
13186;DHT22;6658;53.080;7.428;2023-05-10T07:40:49;13.90;99.90
13186;DHT22;6658;53.080;7.428;2023-05-10T07:43:14;13.90;99.90
13186;DHT22;6658;53.080;7.428;2023-05-10T07:45:40;14.00;99.90
13186;DHT22;6658;53.080;7.428;2023-05-10T07:48:06;14.00;99.90
13186;DHT22;6658;53.080;7.428;2023-05-10T07:50:31;14.00;99.90
13186;DHT22;6658;53.080;7.428;2023-05-10T07:52:57;14.10;99.90
13186;DHT22;6658;53.080;7.428;2023-05-10T07:55:23;14.20;99.90
13186;DHT22;6658;53.080;7.428;2023-05-10T07:57:49;14.20;99.90
13186;DHT22;6658;53.080;7.428;2023-05-10T08:00:18;14.30;99.90
13186;DHT22;6658;53.080;7.428;2023-05-10T08:02:44;14.30;99.90
13186;DHT22;6658;53.080;7.428;2023-05-10T08:05:10;14.40;99.90
13186;DHT22;6658;53.080;7.428;2023-05-10T08:07:36;14.30;99.90
13186;DHT22;6658;53.080;7.428;2023-05-10T08:10:03;14.30;99.90
13186;DHT22;6658;53.080;7.428;2023-05-10T08:12:28;14.40;99.90
13186;DHT22;6658;53.080;7.428;2023-05-10T08:14:54;14.50;99.90
13186;DHT22;6658;53.080;7.428;2023-05-10T08:17:20;14.50;99.90
13186;DHT22;6658;53.080;7.428;2023-05-10T08:19:46;14.60;99.90
13186;DHT22;6658;53.080;7.428;2023-05-10T08:22:12;14.70;99.90
13186;DHT22;6658;53.080;7.428;2023-05-10T08:24:37;14.80;99.90
13186;DHT22;6658;53.080;7.428;2023-05-10T08:27:07;14.90;99.90
13186;DHT22;6658;53.080;7.428;2023-05-10T08:29:34;14.80;99.90
13186;DHT22;6658;53.080;7.428;2023-05-10T08:32:00;14.80;99.90
13186;DHT22;6658;53.080;7.428;2023-05-10T08:34:26;14.80;99.90
13186;DHT22;6658;53.080;7.428;2023-05-10T08:36:55;14.90;99.90
13186;DHT22;6658;53.080;7.428;2023-05-10T08:39:21;14.90;99.90
13186;DHT22;6658;53.080;7.428;2023-05-10T08:41:51;14.90;99.90
13186;DHT22;6658;53.080;7.428;2023-05-10T08:44:19;14.80;99.90
13186;DHT22;6658;53.080;7.428;2023-05-10T08:46:46;14.70;99.90
13186;DHT22;6658;53.080;7.428;2023-05-10T08:49:20;14.60;99.90
13186;DHT22;6658;53.080;7.428;2023-05-10T08:51:54;14.60;99.90
13186;DHT22;6658;53.080;7.428;2023-05-10T08:54:21;14.50;99.90
13186;DHT22;6658;53.080;7.428;2023-05-10T08:56:47;14.50;99.90
13186;DHT22;6658;53.080;7.428;2023-05-10T08:59:13;14.40;99.90
13186;DHT22;6658;53.080;7.428;2023-05-10T09:01:40;14.50;99.90
13186;DHT22;6658;53.080;7.428;2023-05-10T09:04:08;14.50;99.90
13186;DHT22;6658;53.080;7.428;2023-05-10T09:06:33;14.40;99.90
13186;DHT22;6658;53.080;7.428;2023-05-10T09:09:00;14.40;99.90
13186;DHT22;6658;53.080;7.428;2023-05-10T09:11:26;14.30;99.90
13186;DHT22;6658;53.080;7.428;2023-05-10T09:13:55;14.30;99.90
13186;DHT22;6658;53.080;7.428;2023-05-10T09:16:22;14.40;99.90
13186;DHT22;6658;53.080;7.428;2023-05-10T09:18:48;14.50;99.90
13186;DHT22;6658;53.080;7.428;2023-05-10T09:21:14;14.60;99.90
13186;DHT22;6658;53.080;7.428;2023-05-10T09:23:47;14.60;99.90
13186;DHT22;6658;53.080;7.428;2023-05-10T09:26:13;14.70;99.90
13186;DHT22;6658;53.080;7.428;2023-05-10T09:28:53;14.60;99.90
13186;DHT22;6658;53.080;7.428;2023-05-10T09:31:19;14.60;99.90
13186;DHT22;6658;53.080;7.428;2023-05-10T09:33:49;14.60;99.90
13186;DHT22;6658;53.080;7.428;2023-05-10T09:36:15;14.50;99.90
13186;DHT22;6658;53.080;7.428;2023-05-10T09:38:51;14.50;99.90
13186;DHT22;6658;53.080;7.428;2023-05-10T09:41:23;14.50;99.90
13186;DHT22;6658;53.080;7.428;2023-05-10T09:43:50;14.40;99.90
13186;DHT22;6658;53.080;7.428;2023-05-10T09:46:16;14.40;99.90
13186;DHT22;6658;53.080;7.428;2023-05-10T09:48:44;14.40;99.90
13186;DHT22;6658;53.080;7.428;2023-05-10T09:51:10;14.40;99.90
13186;DHT22;6658;53.080;7.428;2023-05-10T09:53:36;14.40;99.90
13186;DHT22;6658;53.080;7.428;2023-05-10T09:56:02;14.40;99.90
13186;DHT22;6658;53.080;7.428;2023-05-10T09:58:28;14.50;99.90
13186;DHT22;6658;53.080;7.428;2023-05-10T10:00:54;14.50;99.90
13186;DHT22;6658;53.080;7.428;2023-05-10T10:03:21;14.50;99.90
13186;DHT22;6658;53.080;7.428;2023-05-10T10:05:47;14.40;99.90
13186;DHT22;6658;53.080;7.428;2023-05-10T10:08:15;14.60;99.90
13186;DHT22;6658;53.080;7.428;2023-05-10T10:10:41;14.50;99.90
13186;DHT22;6658;53.080;7.428;2023-05-10T10:13:08;14.60;99.90
13186;DHT22;6658;53.080;7.428;2023-05-10T10:15:34;14.60;99.90
13186;DHT22;6658;53.080;7.428;2023-05-10T10:18:01;14.60;99.90
13186;DHT22;6658;53.080;7.428;2023-05-10T10:20:27;14.70;99.90
13186;DHT22;6658;53.080;7.428;2023-05-10T10:22:53;14.70;99.90
13186;DHT22;6658;53.080;7.428;2023-05-10T10:25:20;14.70;99.90
13186;DHT22;6658;53.080;7.428;2023-05-10T10:35:52;14.80;99.90
13186;DHT22;6658;53.080;7.428;2023-05-10T10:38:18;14.70;99.90
13186;DHT22;6658;53.080;7.428;2023-05-10T10:40:47;14.80;99.90
13186;DHT22;6658;53.080;7.428;2023-05-10T10:43:26;14.80;99.90
13186;DHT22;6658;53.080;7.428;2023-05-10T10:46:11;14.90;99.90
13186;DHT22;6658;53.080;7.428;2023-05-10T10:48:39;14.90;99.90
13186;DHT22;6658;53.080;7.428;2023-05-10T10:51:05;14.90;99.90
13186;DHT22;6658;53.080;7.428;2023-05-10T10:53:32;15.20;99.90
13186;DHT22;6658;53.080;7.428;2023-05-10T10:56:09;15.50;99.90
13186;DHT22;6658;53.080;7.428;2023-05-10T10:58:36;15.60;99.90
13186;DHT22;6658;53.080;7.428;2023-05-10T11:01:16;15.50;99.90
13186;DHT22;6658;53.080;7.428;2023-05-10T11:04:17;15.40;99.90
13186;DHT22;6658;53.080;7.428;2023-05-10T11:06:44;15.30;99.90
13186;DHT22;6658;53.080;7.428;2023-05-10T11:09:11;15.60;99.90
13186;DHT22;6658;53.080;7.428;2023-05-10T11:11:54;15.90;99.90
13186;DHT22;6658;53.080;7.428;2023-05-10T11:14:24;16.10;99.90
13186;DHT22;6658;53.080;7.428;2023-05-10T11:16:50;16.20;99.90
13186;DHT22;6658;53.080;7.428;2023-05-10T11:19:17;16.20;99.90
13186;DHT22;6658;53.080;7.428;2023-05-10T11:22:11;16.20;99.90
13186;DHT22;6658;53.080;7.428;2023-05-10T11:24:38;16.10;99.90
13186;DHT22;6658;53.080;7.428;2023-05-10T11:27:05;16.20;99.90
13186;DHT22;6658;53.080;7.428;2023-05-10T11:29:31;16.30;99.90
13186;DHT22;6658;53.080;7.428;2023-05-10T11:31:58;16.40;99.90
13186;DHT22;6658;53.080;7.428;2023-05-10T11:34:28;16.50;99.90
13186;DHT22;6658;53.080;7.428;2023-05-10T11:37:00;16.70;99.90
13186;DHT22;6658;53.080;7.428;2023-05-10T11:39:28;16.90;99.90
13186;DHT22;6658;53.080;7.428;2023-05-10T11:41:54;16.90;99.90
13186;DHT22;6658;53.080;7.428;2023-05-10T11:44:20;16.90;99.90
13186;DHT22;6658;53.080;7.428;2023-05-10T11:46:46;16.80;99.90
13186;DHT22;6658;53.080;7.428;2023-05-10T11:49:15;16.70;99.90
13186;DHT22;6658;53.080;7.428;2023-05-10T11:51:41;16.70;99.90
13186;DHT22;6658;53.080;7.428;2023-05-10T11:54:10;16.90;99.90
13186;DHT22;6658;53.080;7.428;2023-05-10T11:56:40;17.20;99.90
13186;DHT22;6658;53.080;7.428;2023-05-10T11:59:06;17.30;99.90
13186;DHT22;6658;53.080;7.428;2023-05-10T12:01:39;17.40;99.90
13186;DHT22;6658;53.080;7.428;2023-05-10T12:04:05;17.20;99.90
13186;DHT22;6658;53.080;7.428;2023-05-10T12:06:34;17.10;99.90
13186;DHT22;6658;53.080;7.428;2023-05-10T12:09:06;17.10;99.90
13186;DHT22;6658;53.080;7.428;2023-05-10T12:11:37;17.10;99.90
13186;DHT22;6658;53.080;7.428;2023-05-10T12:14:05;17.30;99.90
13186;DHT22;6658;53.080;7.428;2023-05-10T12:16:31;17.40;99.90
13186;DHT22;6658;53.080;7.428;2023-05-10T12:18:58;17.50;99.90
13186;DHT22;6658;53.080;7.428;2023-05-10T12:21:25;17.40;99.90
13186;DHT22;6658;53.080;7.428;2023-05-10T12:23:59;17.20;99.90
13186;DHT22;6658;53.080;7.428;2023-05-10T12:26:25;17.10;99.90
13186;DHT22;6658;53.080;7.428;2023-05-10T12:29:14;17.20;99.90
13186;DHT22;6658;53.080;7.428;2023-05-10T12:31:58;17.10;99.90
13186;DHT22;6658;53.080;7.428;2023-05-10T12:36:55;17.00;99.90
13186;DHT22;6658;53.080;7.428;2023-05-10T12:39:21;17.10;99.90
13186;DHT22;6658;53.080;7.428;2023-05-10T12:41:47;17.10;99.90
13186;DHT22;6658;53.080;7.428;2023-05-10T12:44:13;16.90;99.90
13186;DHT22;6658;53.080;7.428;2023-05-10T12:46:39;17.10;99.90
13186;DHT22;6658;53.080;7.428;2023-05-10T12:49:05;17.10;99.90
13186;DHT22;6658;53.080;7.428;2023-05-10T12:51:31;17.30;99.90
13186;DHT22;6658;53.080;7.428;2023-05-10T12:53:56;17.50;99.90
13186;DHT22;6658;53.080;7.428;2023-05-10T12:56:22;17.60;99.90
13186;DHT22;6658;53.080;7.428;2023-05-10T12:58:48;17.60;99.90
13186;DHT22;6658;53.080;7.428;2023-05-10T13:01:17;17.40;99.90
13186;DHT22;6658;53.080;7.428;2023-05-10T13:03:46;17.30;99.90
13186;DHT22;6658;53.080;7.428;2023-05-10T13:06:13;17.10;99.90
13186;DHT22;6658;53.080;7.428;2023-05-10T13:08:38;17.00;99.90
13186;DHT22;6658;53.080;7.428;2023-05-10T13:11:05;16.80;99.90
13186;DHT22;6658;53.080;7.428;2023-05-10T13:13:31;16.80;99.90
13186;DHT22;6658;53.080;7.428;2023-05-10T13:15:57;16.70;99.90
13186;DHT22;6658;53.080;7.428;2023-05-10T13:18:23;16.60;99.90
13186;DHT22;6658;53.080;7.428;2023-05-10T13:20:49;16.60;99.90
13186;DHT22;6658;53.080;7.428;2023-05-10T13:23:15;16.60;99.90
13186;DHT22;6658;53.080;7.428;2023-05-10T13:25:41;16.60;99.90
13186;DHT22;6658;53.080;7.428;2023-05-10T13:28:07;16.60;99.90
13186;DHT22;6658;53.080;7.428;2023-05-10T13:30:33;16.50;99.90
13186;DHT22;6658;53.080;7.428;2023-05-10T13:33:07;16.60;99.90
13186;DHT22;6658;53.080;7.428;2023-05-10T13:35:32;16.70;99.90
13186;DHT22;6658;53.080;7.428;2023-05-10T13:37:58;16.80;99.90
13186;DHT22;6658;53.080;7.428;2023-05-10T13:40:24;16.90;99.90
13186;DHT22;6658;53.080;7.428;2023-05-10T13:42:50;16.90;99.90
13186;DHT22;6658;53.080;7.428;2023-05-10T13:45:15;17.00;99.90
13186;DHT22;6658;53.080;7.428;2023-05-10T13:47:41;17.10;99.90
13186;DHT22;6658;53.080;7.428;2023-05-10T13:50:07;17.30;99.90
13186;DHT22;6658;53.080;7.428;2023-05-10T13:52:33;17.30;99.90
13186;DHT22;6658;53.080;7.428;2023-05-10T13:55:03;17.40;99.90
13186;DHT22;6658;53.080;7.428;2023-05-10T13:57:29;17.50;99.90
13186;DHT22;6658;53.080;7.428;2023-05-10T13:59:55;17.50;99.90
13186;DHT22;6658;53.080;7.428;2023-05-10T14:02:22;17.40;99.90
13186;DHT22;6658;53.080;7.428;2023-05-10T14:04:48;17.20;99.90
13186;DHT22;6658;53.080;7.428;2023-05-10T14:07:14;17.00;99.90
13186;DHT22;6658;53.080;7.428;2023-05-10T14:09:40;16.60;99.90
13186;DHT22;6658;53.080;7.428;2023-05-10T14:12:06;16.40;99.90
13186;DHT22;6658;53.080;7.428;2023-05-10T14:14:32;16.20;99.90
13186;DHT22;6658;53.080;7.428;2023-05-10T14:16:57;16.10;99.90
13186;DHT22;6658;53.080;7.428;2023-05-10T14:19:24;15.90;99.90
13186;DHT22;6658;53.080;7.428;2023-05-10T14:21:50;15.80;99.90
13186;DHT22;6658;53.080;7.428;2023-05-10T14:24:17;15.80;99.90
13186;DHT22;6658;53.080;7.428;2023-05-10T14:26:43;16.00;99.90
13186;DHT22;6658;53.080;7.428;2023-05-10T14:29:09;16.30;99.90
13186;DHT22;6658;53.080;7.428;2023-05-10T14:31:35;16.70;99.90
13186;DHT22;6658;53.080;7.428;2023-05-10T14:34:00;17.10;99.90
13186;DHT22;6658;53.080;7.428;2023-05-10T14:36:26;17.50;99.90
13186;DHT22;6658;53.080;7.428;2023-05-10T14:38:52;17.60;99.90
13186;DHT22;6658;53.080;7.428;2023-05-10T14:41:21;17.70;99.90
13186;DHT22;6658;53.080;7.428;2023-05-10T14:43:47;17.70;99.90
13186;DHT22;6658;53.080;7.428;2023-05-10T14:46:12;17.50;99.90
13186;DHT22;6658;53.080;7.428;2023-05-10T14:48:38;17.30;99.90
13186;DHT22;6658;53.080;7.428;2023-05-10T14:51:04;17.30;99.90
13186;DHT22;6658;53.080;7.428;2023-05-10T14:53:30;17.10;99.90
13186;DHT22;6658;53.080;7.428;2023-05-10T14:55:56;17.00;99.90
13186;DHT22;6658;53.080;7.428;2023-05-10T14:58:22;17.00;99.90
13186;DHT22;6658;53.080;7.428;2023-05-10T15:00:48;17.00;99.90
13186;DHT22;6658;53.080;7.428;2023-05-10T15:03:14;17.10;99.90
13186;DHT22;6658;53.080;7.428;2023-05-10T15:05:40;17.10;99.90
13186;DHT22;6658;53.080;7.428;2023-05-10T15:08:05;17.20;99.90
13186;DHT22;6658;53.080;7.428;2023-05-10T15:10:31;17.20;99.90
13186;DHT22;6658;53.080;7.428;2023-05-10T15:12:58;17.10;99.90
13186;DHT22;6658;53.080;7.428;2023-05-10T15:15:27;16.90;99.90
13186;DHT22;6658;53.080;7.428;2023-05-10T15:17:53;16.80;99.90
13186;DHT22;6658;53.080;7.428;2023-05-10T15:20:19;16.50;99.90
13186;DHT22;6658;53.080;7.428;2023-05-10T15:22:45;16.30;99.90
13186;DHT22;6658;53.080;7.428;2023-05-10T15:25:10;16.10;99.90
13186;DHT22;6658;53.080;7.428;2023-05-10T15:27:36;16.00;99.90
13186;DHT22;6658;53.080;7.428;2023-05-10T15:30:02;15.90;99.90
13186;DHT22;6658;53.080;7.428;2023-05-10T15:32:28;15.90;99.90
13186;DHT22;6658;53.080;7.428;2023-05-10T15:34:54;15.90;99.90
13186;DHT22;6658;53.080;7.428;2023-05-10T15:37:20;16.00;99.90
13186;DHT22;6658;53.080;7.428;2023-05-10T15:39:48;16.20;99.90
13186;DHT22;6658;53.080;7.428;2023-05-10T15:42:14;16.30;99.90
13186;DHT22;6658;53.080;7.428;2023-05-10T15:44:40;16.40;99.90
13186;DHT22;6658;53.080;7.428;2023-05-10T15:47:05;16.50;99.90
13186;DHT22;6658;53.080;7.428;2023-05-10T15:49:32;16.60;99.90
13186;DHT22;6658;53.080;7.428;2023-05-10T15:51:58;16.70;99.90
13186;DHT22;6658;53.080;7.428;2023-05-10T15:54:24;16.80;99.90
13186;DHT22;6658;53.080;7.428;2023-05-10T15:56:50;16.60;99.90
13186;DHT22;6658;53.080;7.428;2023-05-10T15:59:16;16.60;99.90
13186;DHT22;6658;53.080;7.428;2023-05-10T16:01:42;16.50;99.90
13186;DHT22;6658;53.080;7.428;2023-05-10T16:04:07;16.50;99.90
13186;DHT22;6658;53.080;7.428;2023-05-10T16:06:35;16.40;99.90
13186;DHT22;6658;53.080;7.428;2023-05-10T16:09:02;16.40;99.90
13186;DHT22;6658;53.080;7.428;2023-05-10T16:11:28;16.50;99.90
13186;DHT22;6658;53.080;7.428;2023-05-10T16:13:54;16.50;99.90
13186;DHT22;6658;53.080;7.428;2023-05-10T16:16:19;16.50;99.90
13186;DHT22;6658;53.080;7.428;2023-05-10T16:18:57;16.50;99.90
13186;DHT22;6658;53.080;7.428;2023-05-10T16:21:29;16.60;99.90
13186;DHT22;6658;53.080;7.428;2023-05-10T16:23:57;16.50;99.90
13186;DHT22;6658;53.080;7.428;2023-05-10T16:26:23;16.60;99.90
13186;DHT22;6658;53.080;7.428;2023-05-10T16:28:50;16.50;99.90
13186;DHT22;6658;53.080;7.428;2023-05-10T16:31:16;16.40;99.90
13186;DHT22;6658;53.080;7.428;2023-05-10T16:33:45;16.20;99.90
13186;DHT22;6658;53.080;7.428;2023-05-10T16:36:11;16.10;99.90
13186;DHT22;6658;53.080;7.428;2023-05-10T16:38:37;16.00;99.90
13186;DHT22;6658;53.080;7.428;2023-05-10T16:41:03;15.90;99.90
13186;DHT22;6658;53.080;7.428;2023-05-10T16:43:32;15.80;99.90
13186;DHT22;6658;53.080;7.428;2023-05-10T16:45:58;15.80;99.90
13186;DHT22;6658;53.080;7.428;2023-05-10T16:48:24;15.80;99.90
13186;DHT22;6658;53.080;7.428;2023-05-10T16:50:52;15.80;99.90
13186;DHT22;6658;53.080;7.428;2023-05-10T16:53:18;15.80;99.90
13186;DHT22;6658;53.080;7.428;2023-05-10T16:55:47;15.80;99.90
13186;DHT22;6658;53.080;7.428;2023-05-10T16:58:13;15.80;99.90
13186;DHT22;6658;53.080;7.428;2023-05-10T17:00:39;15.90;99.90
13186;DHT22;6658;53.080;7.428;2023-05-10T17:03:07;15.90;99.90
13186;DHT22;6658;53.080;7.428;2023-05-10T17:05:33;15.90;99.90
13186;DHT22;6658;53.080;7.428;2023-05-10T17:08:02;15.90;99.90
13186;DHT22;6658;53.080;7.428;2023-05-10T17:10:31;15.90;99.90
13186;DHT22;6658;53.080;7.428;2023-05-10T17:12:57;15.90;99.90
13186;DHT22;6658;53.080;7.428;2023-05-10T17:15:26;15.90;99.90
13186;DHT22;6658;53.080;7.428;2023-05-10T17:17:52;15.90;99.90
13186;DHT22;6658;53.080;7.428;2023-05-10T17:20:17;15.80;99.90
13186;DHT22;6658;53.080;7.428;2023-05-10T17:22:43;15.80;99.90
13186;DHT22;6658;53.080;7.428;2023-05-10T17:25:09;15.80;99.90